createdAt,value
2019-04-29T00:00:07.369Z,14.16
2019-04-29T00:02:38.229Z,14.08
2019-04-29T00:05:09.279Z,14.00
2019-04-29T00:07:39.997Z,13.84
2019-04-29T00:10:15.733Z,13.84
2019-04-29T00:12:47.486Z,13.78
2019-04-29T00:15:19.759Z,13.64
2019-04-29T00:17:54.754Z,13.58
2019-04-29T00:20:35.674Z,13.58
2019-04-29T00:23:06.451Z,13.59
2019-04-29T00:25:37.343Z,13.50
2019-04-29T00:28:07.965Z,13.37
2019-04-29T00:30:38.606Z,13.46
2019-04-29T00:33:09.513Z,13.40
2019-04-29T00:35:40.655Z,13.39
2019-04-29T00:38:18.872Z,13.45
2019-04-29T00:40:55.457Z,13.48
2019-04-29T00:43:30.597Z,13.49
2019-04-29T00:46:04.901Z,13.57
2019-04-29T00:48:35.494Z,13.59
2019-04-29T00:51:06.259Z,13.59
2019-04-29T00:53:37.073Z,13.56
2019-04-29T00:56:07.776Z,13.58
2019-04-29T00:58:38.961Z,13.64
2019-04-29T01:01:13.088Z,13.62
2019-04-29T01:03:43.806Z,13.61
2019-04-29T01:06:14.423Z,13.58
2019-04-29T01:08:45.428Z,13.56
2019-04-29T01:11:16.148Z,13.50
2019-04-29T01:13:46.764Z,13.53
2019-04-29T01:16:17.412Z,13.48
2019-04-29T01:18:47.998Z,13.47
2019-04-29T01:21:18.877Z,13.47
2019-04-29T01:23:49.714Z,13.42
2019-04-29T01:26:38.077Z,13.39
2019-04-29T01:29:10.266Z,13.39
2019-04-29T01:31:41.047Z,13.38
2019-04-29T01:34:16.268Z,13.34
2019-04-29T01:36:48.044Z,13.31
2019-04-29T01:39:19.502Z,13.27
2019-04-29T01:41:54.419Z,13.27
2019-04-29T01:44:26.662Z,13.21
2019-04-29T01:46:57.334Z,13.16
2019-04-29T01:49:27.876Z,13.16
2019-04-29T01:51:58.523Z,13.05
2019-04-29T01:54:29.224Z,13.00
2019-04-29T01:56:59.980Z,12.99
2019-04-29T01:59:30.841Z,12.83
2019-04-29T02:02:01.689Z,12.80
2019-04-29T02:04:32.356Z,12.81
2019-04-29T02:07:02.995Z,12.78
2019-04-29T02:09:41.101Z,12.65
2019-04-29T02:12:12.827Z,12.58
2019-04-29T02:14:43.609Z,12.59
2019-04-29T02:17:14.332Z,12.55
2019-04-29T02:19:44.941Z,12.51
2019-04-29T02:22:17.254Z,12.45
2019-04-29T02:24:55.386Z,12.37
2019-04-29T02:27:26.146Z,12.31
2019-04-29T02:29:56.905Z,12.26
2019-04-29T02:32:27.698Z,12.40
2019-04-29T02:34:58.485Z,12.39
2019-04-29T02:37:30.796Z,12.43
2019-04-29T02:40:06.128Z,12.49
2019-04-29T02:42:38.487Z,12.46
2019-04-29T02:45:16.852Z,12.47
2019-04-29T02:47:47.552Z,12.48
2019-04-29T02:50:18.991Z,12.49
2019-04-29T02:52:49.766Z,12.51
2019-04-29T02:55:22.107Z,12.51
2019-04-29T02:57:57.186Z,12.58
2019-04-29T03:00:32.128Z,12.62
2019-04-29T03:03:04.346Z,12.69
2019-04-29T03:05:39.879Z,12.80
2019-04-29T03:08:09.092Z,12.87
2019-04-29T03:10:39.764Z,12.88
2019-04-29T03:13:10.576Z,13.01
2019-04-29T03:15:42.970Z,13.03
2019-04-29T03:18:14.795Z,12.98
2019-04-29T03:20:47.062Z,13.00
2019-04-29T03:23:22.312Z,12.99
2019-04-29T03:25:54.076Z,12.88
2019-04-29T03:28:24.910Z,12.74
2019-04-29T03:30:55.845Z,12.77
2019-04-29T03:33:26.644Z,12.70
2019-04-29T03:35:57.463Z,12.79
2019-04-29T03:38:28.320Z,12.71
2019-04-29T03:40:59.220Z,13.04
2019-04-29T03:43:29.950Z,13.44
2019-04-29T03:46:00.854Z,14.00
2019-04-29T03:48:31.740Z,14.07
2019-04-29T03:51:05.216Z,14.07
2019-04-29T03:53:36.115Z,14.25
2019-04-29T03:56:06.904Z,13.94
2019-04-29T03:58:37.779Z,13.95
2019-04-29T04:01:16.069Z,14.00
2019-04-29T04:03:54.825Z,14.10
2019-04-29T04:06:27.116Z,13.92
2019-04-29T04:09:06.174Z,14.61
2019-04-29T04:11:33.261Z,15.38
2019-04-29T04:14:05.254Z,15.85
2019-04-29T04:16:55.733Z,15.71
2019-04-29T04:19:29.123Z,15.53
2019-04-29T04:22:00.936Z,15.41
2019-04-29T04:24:31.535Z,15.36
2019-04-29T04:27:05.046Z,15.10
2019-04-29T04:29:35.981Z,15.49
2019-04-29T04:32:06.753Z,16.50
2019-04-29T04:34:37.607Z,16.47
2019-04-29T04:37:08.455Z,16.44
2019-04-29T04:39:40.823Z,16.39
2019-04-29T04:42:12.502Z,16.15
2019-04-29T04:44:50.519Z,16.60
2019-04-29T04:47:21.612Z,16.00
2019-04-29T04:49:52.440Z,16.93
2019-04-29T04:52:23.171Z,17.02
2019-04-29T04:54:55.657Z,16.59
2019-04-29T04:57:26.452Z,17.24
2019-04-29T04:59:57.366Z,17.29
2019-04-29T05:02:28.525Z,18.32
2019-04-29T05:05:00.744Z,18.83
2019-04-29T05:07:31.751Z,19.38
2019-04-29T05:10:02.493Z,18.75
2019-04-29T05:12:33.096Z,18.89
2019-04-29T05:15:04.811Z,19.98
2019-04-29T05:17:38.375Z,20.18
2019-04-29T05:20:11.052Z,19.62
2019-04-29T05:22:43.276Z,19.30
2019-04-29T05:25:14.166Z,20.64
2019-04-29T05:27:45.461Z,22.32
2019-04-29T05:30:16.175Z,21.18
2019-04-29T05:32:47.632Z,23.76
2019-04-29T05:35:45.569Z,23.42
2019-04-29T05:38:22.724Z,21.27
2019-04-29T05:40:56.735Z,22.37
2019-04-29T05:43:33.853Z,22.23
2019-04-29T05:46:12.302Z,21.54
2019-04-29T05:48:43.328Z,22.25
2019-04-29T05:51:18.151Z,22.43
2019-04-29T05:53:54.871Z,21.82
2019-04-29T05:56:22.769Z,20.11
2019-04-29T05:58:53.574Z,20.47
2019-04-29T06:01:26.006Z,19.97
2019-04-29T06:03:56.920Z,19.82
2019-04-29T06:06:27.824Z,19.75
2019-04-29T06:08:58.568Z,19.03
2019-04-29T06:11:29.159Z,18.98
2019-04-29T06:13:59.991Z,19.38
2019-04-29T06:16:30.679Z,19.53
2019-04-29T06:19:05.542Z,18.75
2019-04-29T06:21:33.794Z,18.52
2019-04-29T06:24:06.922Z,18.61
2019-04-29T06:26:37.643Z,18.74
2019-04-29T06:29:08.454Z,18.89
2019-04-29T06:31:39.208Z,19.06
2019-04-29T06:34:09.912Z,19.39
2019-04-29T06:36:40.526Z,19.75
2019-04-29T06:39:11.040Z,20.06
2019-04-29T06:41:45.385Z,19.43
2019-04-29T06:44:16.715Z,20.03
2019-04-29T06:46:50.245Z,19.54
2019-04-29T06:49:18.958Z,19.45
2019-04-29T06:51:49.698Z,19.07
2019-04-29T06:54:20.624Z,19.59
2019-04-29T06:56:51.375Z,19.79
2019-04-29T06:59:22.063Z,19.37
2019-04-29T07:01:52.829Z,19.74
2019-04-29T07:04:23.629Z,19.73
2019-04-29T07:06:57.525Z,20.02
2019-04-29T07:09:27.147Z,19.76
2019-04-29T07:12:01.621Z,19.49
2019-04-29T07:14:33.394Z,19.13
2019-04-29T07:17:05.703Z,19.49
2019-04-29T07:19:40.162Z,19.12
2019-04-29T07:22:13.076Z,18.96
2019-04-29T07:24:43.894Z,19.05
2019-04-29T07:27:14.565Z,19.09
2019-04-29T07:29:45.411Z,19.08
2019-04-29T07:32:16.276Z,18.87
2019-04-29T07:34:46.874Z,18.66
2019-04-29T07:37:17.514Z,18.74
2019-04-29T07:39:48.282Z,18.84
2019-04-29T07:42:18.921Z,18.83
2019-04-29T07:45:07.244Z,18.81
2019-04-29T07:47:38.783Z,18.40
2019-04-29T07:50:09.717Z,18.25
2019-04-29T07:52:45.642Z,18.60
2019-04-29T07:55:15.322Z,18.62
2019-04-29T07:57:47.772Z,19.36
2019-04-29T08:00:21.489Z,19.44
2019-04-29T08:02:52.255Z,20.29
2019-04-29T08:05:22.956Z,20.02
2019-04-29T08:07:54.278Z,21.29
2019-04-29T08:10:28.577Z,20.98
2019-04-29T08:12:59.126Z,21.33
2019-04-29T08:15:31.923Z,21.48
2019-04-29T08:18:06.628Z,21.54
2019-04-29T08:20:35.526Z,21.10
2019-04-29T08:23:07.017Z,21.54
2019-04-29T08:25:37.637Z,20.40
2019-04-29T08:28:08.331Z,20.48
2019-04-29T08:30:41.903Z,20.80
2019-04-29T08:33:13.129Z,20.82
2019-04-29T08:35:46.663Z,20.73
2019-04-29T08:38:16.584Z,20.17
2019-04-29T08:40:49.976Z,20.08
2019-04-29T08:43:33.507Z,19.98
2019-04-29T08:46:11.882Z,20.00
2019-04-29T08:48:45.796Z,19.73
2019-04-29T08:51:15.271Z,20.16
2019-04-29T08:53:45.874Z,20.19
2019-04-29T08:56:16.454Z,19.91
2019-04-29T08:58:49.200Z,20.07
2019-04-29T09:01:19.502Z,19.62
2019-04-29T09:03:53.772Z,20.25
2019-04-29T09:06:22.490Z,20.36
2019-04-29T09:08:55.523Z,20.66
2019-04-29T09:11:25.697Z,20.82
2019-04-29T09:13:56.557Z,20.28
2019-04-29T09:16:27.617Z,20.97
2019-04-29T09:18:58.250Z,20.08
2019-04-29T09:21:30.437Z,20.26
2019-04-29T09:24:01.276Z,20.00
2019-04-29T09:26:36.573Z,19.95
2019-04-29T09:29:25.282Z,19.67
2019-04-29T09:31:56.546Z,18.72
2019-04-29T09:34:27.207Z,18.33
2019-04-29T09:37:00.202Z,18.19
2019-04-29T09:39:42.492Z,18.31
2019-04-29T09:42:08.176Z,17.82
2019-04-29T09:44:45.509Z,17.47
2019-04-29T09:47:16.299Z,17.09
2019-04-29T09:49:46.894Z,17.30
2019-04-29T09:52:17.735Z,16.95
2019-04-29T09:54:48.538Z,16.72
2019-04-29T09:57:19.170Z,15.98
2019-04-29T10:00:08.913Z,15.80
2019-04-29T10:02:44.476Z,15.73
2019-04-29T10:05:29.239Z,16.25
2019-04-29T10:08:00.036Z,16.35
2019-04-29T10:10:30.762Z,16.33
2019-04-29T10:13:02.124Z,16.22
2019-04-29T10:15:34.484Z,16.48
2019-04-29T10:18:10.755Z,16.38
2019-04-29T10:20:46.344Z,16.43
2019-04-29T10:23:18.520Z,16.59
2019-04-29T10:25:49.260Z,16.83
2019-04-29T10:28:19.888Z,16.87
2019-04-29T10:30:50.906Z,16.94
2019-04-29T10:33:23.138Z,17.55
2019-04-29T10:35:54.085Z,17.49
2019-04-29T10:38:24.654Z,17.99
2019-04-29T10:41:00.690Z,18.26
2019-04-29T10:43:53.448Z,18.48
2019-04-29T10:46:39.840Z,18.54
2019-04-29T10:49:14.967Z,18.66
2019-04-29T10:51:46.357Z,18.85
2019-04-29T10:54:18.449Z,18.05
2019-04-29T10:56:51.100Z,18.18
2019-04-29T10:59:35.152Z,18.54
2019-04-29T11:02:13.474Z,18.08
2019-04-29T11:04:40.247Z,17.83
2019-04-29T11:07:19.111Z,17.92
2019-04-29T11:09:50.709Z,17.51
2019-04-29T11:12:24.418Z,17.53
2019-04-29T11:14:55.229Z,17.53
2019-04-29T11:17:27.565Z,17.47
2019-04-29T11:19:58.330Z,17.66
2019-04-29T11:22:33.900Z,17.78
2019-04-29T11:25:11.238Z,17.26
2019-04-29T11:27:49.577Z,16.72
2019-04-29T11:30:26.030Z,16.45
2019-04-29T11:33:00.095Z,16.30
2019-04-29T11:35:45.332Z,16.26
2019-04-29T11:38:17.814Z,16.35
2019-04-29T11:40:50.231Z,16.11
2019-04-29T11:43:21.029Z,16.25
2019-04-29T11:45:52.151Z,16.24
2019-04-29T11:48:22.852Z,16.19
2019-04-29T11:51:01.365Z,16.31
2019-04-29T11:53:32.263Z,16.23
2019-04-29T11:56:02.887Z,16.04
2019-04-29T11:58:38.137Z,15.98
2019-04-29T12:01:38.420Z,16.01
2019-04-29T12:04:01.476Z,16.06
2019-04-29T12:06:32.294Z,15.94
2019-04-29T12:09:06.561Z,16.10
2019-04-29T12:11:37.333Z,16.11
2019-04-29T12:14:18.318Z,16.15
2019-04-29T12:16:56.813Z,15.84
2019-04-29T12:19:32.278Z,15.90
2019-04-29T12:22:04.767Z,15.84
2019-04-29T12:24:35.785Z,15.64
2019-04-29T12:27:06.995Z,15.57
2019-04-29T12:29:37.814Z,15.61
2019-04-29T12:32:10.321Z,15.44
2019-04-29T12:34:42.882Z,15.43
2019-04-29T12:37:18.004Z,15.48
2019-04-29T12:39:50.476Z,15.56
2019-04-29T12:42:40.206Z,15.54
2019-04-29T12:45:19.916Z,15.60
2019-04-29T12:47:50.825Z,15.69
2019-04-29T12:50:22.991Z,15.77
2019-04-29T12:52:54.229Z,16.04
2019-04-29T12:55:43.640Z,15.87
2019-04-29T12:57:59.155Z,16.16
2019-04-29T13:00:46.875Z,16.06
2019-04-29T13:03:08.688Z,16.08
2019-04-29T13:05:57.929Z,16.11
2019-04-29T13:08:21.254Z,16.31
2019-04-29T13:10:53.502Z,16.04
2019-04-29T13:13:24.279Z,15.99
2019-04-29T13:16:05.657Z,15.83
2019-04-29T13:18:53.793Z,15.78
2019-04-29T13:21:22.745Z,15.83
2019-04-29T13:24:05.331Z,16.05
2019-04-29T13:26:28.303Z,15.93
2019-04-29T13:29:01.018Z,15.45
2019-04-29T13:31:38.546Z,15.09
2019-04-29T13:34:22.826Z,15.42
2019-04-29T13:36:40.185Z,15.14
2019-04-29T13:39:11.263Z,15.16
2019-04-29T13:41:56.283Z,15.09
2019-04-29T13:44:19.296Z,15.11
2019-04-29T13:46:54.090Z,14.49
2019-04-29T13:49:31.667Z,14.38
2019-04-29T13:52:03.911Z,14.33
2019-04-29T13:54:37.193Z,14.08
2019-04-29T13:57:15.612Z,14.13
2019-04-29T13:59:53.147Z,13.70
2019-04-29T14:02:36.776Z,13.51
2019-04-29T14:05:10.914Z,13.37
2019-04-29T14:07:42.110Z,13.16
2019-04-29T14:10:16.800Z,13.22
2019-04-29T14:13:00.714Z,13.15
2019-04-29T14:15:21.719Z,13.13
2019-04-29T14:17:52.727Z,13.01
2019-04-29T14:20:24.682Z,13.07
2019-04-29T14:22:55.370Z,12.94
2019-04-29T14:25:26.062Z,12.88
2019-04-29T14:27:56.825Z,12.90
2019-04-29T14:30:38.392Z,12.74
2019-04-29T14:33:03.044Z,12.66
2019-04-29T14:35:36.428Z,12.64
2019-04-29T14:38:07.135Z,12.54
2019-04-29T14:40:39.123Z,12.43
2019-04-29T14:43:31.712Z,12.45
2019-04-29T14:46:15.959Z,12.51
2019-04-29T14:48:48.024Z,12.35
2019-04-29T14:51:18.833Z,12.36
2019-04-29T14:53:56.539Z,12.26
2019-04-29T14:56:25.195Z,12.20
2019-04-29T14:59:06.584Z,12.25
2019-04-29T15:01:36.622Z,12.30
2019-04-29T15:04:18.403Z,12.32
2019-04-29T15:06:44.711Z,12.22
2019-04-29T15:09:19.830Z,12.20
2019-04-29T15:11:59.145Z,12.37
2019-04-29T15:14:33.391Z,12.22
2019-04-29T15:17:17.490Z,12.13
2019-04-29T15:19:55.832Z,12.06
2019-04-29T15:22:30.221Z,12.16
2019-04-29T15:25:01.683Z,12.04
2019-04-29T15:27:32.895Z,12.04
2019-04-29T15:30:06.317Z,12.08
2019-04-29T15:32:37.669Z,12.27
2019-04-29T15:35:08.510Z,12.30
2019-04-29T15:37:39.248Z,12.24
2019-04-29T15:40:11.503Z,12.16
2019-04-29T15:42:46.270Z,12.26
2019-04-29T15:45:16.314Z,12.09
2019-04-29T15:47:47.254Z,11.97
2019-04-29T15:50:19.437Z,11.91
2019-04-29T15:52:50.423Z,11.89
2019-04-29T15:55:21.085Z,11.81
2019-04-29T15:57:52.697Z,11.52
2019-04-29T16:00:24.996Z,11.58
2019-04-29T16:02:58.648Z,11.48
2019-04-29T16:06:11.129Z,11.48
2019-04-29T16:08:29.265Z,11.41
2019-04-29T16:10:59.320Z,11.34
2019-04-29T16:13:32.930Z,11.20
2019-04-29T16:16:03.714Z,11.23
2019-04-29T16:18:34.702Z,11.19
2019-04-29T16:21:05.453Z,11.07
2019-04-29T16:23:38.567Z,11.03
2019-04-29T16:26:08.744Z,11.14
2019-04-29T16:28:40.221Z,11.04
2019-04-29T16:31:12.175Z,11.02
2019-04-29T16:33:47.305Z,11.01
2019-04-29T16:36:16.226Z,10.99
2019-04-29T16:38:51.328Z,10.91
2019-04-29T16:41:36.376Z,10.90
2019-04-29T16:44:34.290Z,10.83
2019-04-29T16:46:47.354Z,10.87
2019-04-29T16:49:18.815Z,10.89
2019-04-29T16:51:53.442Z,10.80
2019-04-29T16:54:28.121Z,10.72
2019-04-29T16:56:56.065Z,10.71
2019-04-29T16:59:26.851Z,10.67
2019-04-29T17:01:57.822Z,10.64
2019-04-29T17:04:29.975Z,10.57
2019-04-29T17:07:12.139Z,10.56
2019-04-29T17:09:48.458Z,10.57
2019-04-29T17:12:19.324Z,10.49
2019-04-29T17:15:03.745Z,10.42
2019-04-29T17:17:29.328Z,10.36
2019-04-29T17:19:56.871Z,10.33
2019-04-29T17:22:27.929Z,10.31
2019-04-29T17:24:58.679Z,10.26
2019-04-29T17:27:46.130Z,10.22
2019-04-29T17:30:38.265Z,10.25
2019-04-29T17:33:27.754Z,10.28
2019-04-29T17:35:57.519Z,10.24
2019-04-29T17:38:28.264Z,10.28
2019-04-29T17:40:59.000Z,10.27
2019-04-29T17:43:44.749Z,10.28
2019-04-29T17:46:17.472Z,10.23
2019-04-29T17:48:54.073Z,10.18
2019-04-29T17:51:26.958Z,10.26
2019-04-29T17:54:27.943Z,10.14
2019-04-29T17:57:25.662Z,10.12
2019-04-29T17:59:45.931Z,10.09
2019-04-29T18:02:22.975Z,10.14
2019-04-29T18:05:02.086Z,10.11
2019-04-29T18:07:51.923Z,10.09
2019-04-29T18:10:24.091Z,10.06
2019-04-29T18:12:55.254Z,9.98
2019-04-29T18:15:40.182Z,9.99
2019-04-29T18:18:07.134Z,9.96
2019-04-29T18:20:39.509Z,9.96
2019-04-29T18:23:30.299Z,9.95
2019-04-29T18:26:05.472Z,9.99
2019-04-29T18:28:37.383Z,9.96
2019-04-29T18:31:09.869Z,9.92
2019-04-29T18:33:41.226Z,9.89
2019-04-29T18:36:21.787Z,9.86
2019-04-29T18:38:48.708Z,9.83
2019-04-29T18:41:24.479Z,9.78
2019-04-29T18:43:49.357Z,9.68
2019-04-29T18:46:20.160Z,9.64
2019-04-29T18:48:51.108Z,9.63
2019-04-29T18:51:25.689Z,9.61
2019-04-29T18:53:55.543Z,9.59
2019-04-29T18:56:26.388Z,9.56
2019-04-29T18:58:57.146Z,9.55
2019-04-29T19:01:28.987Z,9.57
2019-04-29T19:04:10.118Z,9.55
2019-04-29T19:06:40.711Z,9.53
2019-04-29T19:09:20.093Z,9.44
2019-04-29T19:11:46.360Z,9.47
2019-04-29T19:14:20.579Z,9.44
2019-04-29T19:16:52.722Z,9.38
2019-04-29T19:19:22.260Z,9.46
2019-04-29T19:21:52.979Z,9.39
2019-04-29T19:24:23.840Z,9.38
2019-04-29T19:27:00.549Z,9.35
2019-04-29T19:29:27.227Z,9.34
2019-04-29T19:31:57.955Z,9.39
2019-04-29T19:34:39.961Z,9.39
2019-04-29T19:37:01.192Z,9.39
2019-04-29T19:39:31.929Z,9.39
2019-04-29T19:42:02.667Z,9.33
2019-04-29T19:44:36.536Z,9.31
2019-04-29T19:47:06.168Z,9.27
2019-04-29T19:49:40.283Z,9.20
2019-04-29T19:52:09.507Z,9.11
2019-04-29T19:54:40.329Z,9.11
2019-04-29T19:57:11.091Z,9.12
2019-04-29T19:59:50.409Z,9.19
2019-04-29T20:02:16.566Z,9.14
2019-04-29T20:04:53.773Z,9.09
2019-04-29T20:07:26.117Z,9.07
2019-04-29T20:10:03.904Z,9.16
2019-04-29T20:12:28.861Z,9.04
2019-04-29T20:15:02.353Z,9.00
2019-04-29T20:17:50.669Z,8.98
2019-04-29T20:20:25.045Z,8.96
2019-04-29T20:22:56.015Z,8.94
2019-04-29T20:25:30.267Z,8.92
2019-04-29T20:28:05.749Z,8.92
2019-04-29T20:30:35.586Z,8.89
2019-04-29T20:33:09.596Z,8.98
2019-04-29T20:35:40.391Z,8.96
2019-04-29T20:38:11.682Z,8.94
2019-04-29T20:40:43.611Z,8.98
2019-04-29T20:43:15.993Z,9.04
2019-04-29T20:45:47.187Z,9.11
2019-04-29T20:48:19.617Z,9.15
2019-04-29T20:50:52.642Z,9.13
2019-04-29T20:53:30.916Z,9.13
2019-04-29T20:56:09.505Z,9.15
2019-04-29T20:58:33.270Z,9.22
2019-04-29T21:01:11.193Z,9.21
2019-04-29T21:03:46.206Z,9.31
2019-04-29T21:06:13.838Z,9.31
2019-04-29T21:08:50.871Z,9.30
2019-04-29T21:11:37.305Z,9.29
2019-04-29T21:14:12.509Z,9.31
2019-04-29T21:16:44.936Z,9.34
2019-04-29T21:19:15.713Z,9.32
2019-04-29T21:21:47.519Z,9.30
2019-04-29T21:24:18.912Z,9.37
2019-04-29T21:26:49.655Z,9.38
2019-04-29T21:29:20.443Z,9.33
2019-04-29T21:31:58.465Z,9.42
2019-04-29T21:34:25.625Z,9.38
2019-04-29T21:37:10.241Z,9.41
2019-04-29T21:39:42.716Z,9.40
2019-04-29T21:42:35.334Z,9.38
2019-04-29T21:45:08.800Z,9.43
2019-04-29T21:47:44.281Z,9.39
2019-04-29T21:50:10.235Z,9.43
2019-04-29T21:52:42.375Z,9.42
2019-04-29T21:55:13.769Z,9.45
2019-04-29T21:57:44.769Z,9.40
2019-04-29T22:00:24.091Z,9.40
2019-04-29T22:02:49.215Z,9.39
2019-04-29T22:05:22.847Z,9.37
2019-04-29T22:07:54.381Z,9.39
2019-04-29T22:10:29.021Z,9.39
2019-04-29T22:13:01.978Z,9.44
2019-04-29T22:15:37.283Z,9.40
2019-04-29T22:18:07.276Z,9.38
2019-04-29T22:20:42.292Z,9.37
2019-04-29T22:23:13.120Z,9.41
2019-04-29T22:25:45.279Z,9.44
2019-04-29T22:28:16.104Z,9.38
2019-04-29T22:30:49.916Z,9.37
2019-04-29T22:33:18.864Z,9.38
2019-04-29T22:35:49.722Z,9.36
2019-04-29T22:38:20.567Z,9.43
2019-04-29T22:40:52.474Z,9.42
2019-04-29T22:43:40.233Z,9.43
2019-04-29T22:46:10.667Z,9.43
2019-04-29T22:48:45.384Z,9.46
2019-04-29T22:51:17.600Z,9.45
2019-04-29T22:53:48.162Z,9.42
2019-04-29T22:56:19.205Z,9.45
2019-04-29T22:58:50.030Z,9.42
2019-04-29T23:01:20.737Z,9.51
2019-04-29T23:03:51.320Z,9.46
2019-04-29T23:06:22.318Z,9.48
2019-04-29T23:08:53.094Z,9.48
2019-04-29T23:11:23.858Z,9.54
2019-04-29T23:13:55.459Z,9.49
2019-04-29T23:16:26.419Z,9.49
2019-04-29T23:18:57.238Z,9.49
2019-04-29T23:21:37.408Z,9.43
2019-04-29T23:24:13.260Z,9.48
2019-04-29T23:26:42.305Z,9.53
2019-04-29T23:29:12.102Z,9.54
2019-04-29T23:31:43.293Z,9.53
2019-04-29T23:34:15.549Z,9.53
2019-04-29T23:36:48.903Z,9.56
2019-04-29T23:39:18.726Z,9.56
2019-04-29T23:41:49.518Z,9.63
2019-04-29T23:44:20.254Z,9.63
2019-04-29T23:46:51.090Z,9.64
2019-04-29T23:49:21.839Z,9.64
2019-04-29T23:51:52.426Z,9.63
2019-04-29T23:54:24.861Z,9.66
2019-04-29T23:57:03.325Z,9.67
2019-04-29T23:59:47.310Z,9.69
